sensor_id;sensor_type;location;lat;lon;timestamp;pressure;altitude;pressure_sealevel;temperature;humidity
21086;BME280;34247;50.064;19.970;2023-02-24T00:00:37;98688.69;;;8.33;80.66
21086;BME280;34247;50.064;19.970;2023-02-24T00:01:58;98686.66;;;8.24;81.13
21086;BME280;34247;50.064;19.970;2023-02-24T00:03:04;98689.00;;;8.28;81.00
21086;BME280;34247;50.064;19.970;2023-02-24T00:04:18;98686.38;;;8.28;80.81
21086;BME280;34247;50.064;19.970;2023-02-24T00:05:24;98679.69;;;8.23;81.06
21086;BME280;34247;50.064;19.970;2023-02-24T00:06:29;98680.41;;;8.25;81.47
21086;BME280;34247;50.064;19.970;2023-02-24T00:07:40;98678.63;;;8.25;81.29
21086;BME280;34247;50.064;19.970;2023-02-24T00:08:44;98675.97;;;8.25;81.22
21086;BME280;34247;50.064;19.970;2023-02-24T00:09:58;98674.00;;;8.29;80.81
21086;BME280;34247;50.064;19.970;2023-02-24T00:11:12;98681.91;;;8.29;81.11
21086;BME280;34247;50.064;19.970;2023-02-24T00:12:17;98674.84;;;8.29;80.76
21086;BME280;34247;50.064;19.970;2023-02-24T00:13:24;98671.22;;;8.30;80.80
21086;BME280;34247;50.064;19.970;2023-02-24T00:14:34;98673.88;;;8.30;80.79
21086;BME280;34247;50.064;19.970;2023-02-24T00:15:38;98669.53;;;8.29;80.82
21086;BME280;34247;50.064;19.970;2023-02-24T00:16:44;98671.22;;;8.30;80.67
21086;BME280;34247;50.064;19.970;2023-02-24T00:17:49;98665.09;;;8.30;80.55
21086;BME280;34247;50.064;19.970;2023-02-24T00:18:54;98667.75;;;8.30;80.49
21086;BME280;34247;50.064;19.970;2023-02-24T00:19:58;98659.81;;;8.30;80.85
21086;BME280;34247;50.064;19.970;2023-02-24T00:21:15;98664.47;;;8.26;80.57
21086;BME280;34247;50.064;19.970;2023-02-24T00:22:19;98667.31;;;8.23;80.84
21086;BME280;34247;50.064;19.970;2023-02-24T00:23:24;98665.50;;;8.24;81.29
21086;BME280;34247;50.064;19.970;2023-02-24T00:24:29;98662.13;;;8.22;81.09
21086;BME280;34247;50.064;19.970;2023-02-24T00:25:34;98664.78;;;8.22;81.16
21086;BME280;34247;50.064;19.970;2023-02-24T00:26:39;98667.66;;;8.19;81.47
21086;BME280;34247;50.064;19.970;2023-02-24T00:27:44;98666.69;;;8.20;81.23
21086;BME280;34247;50.064;19.970;2023-02-24T00:28:48;98665.72;;;8.21;81.27
21086;BME280;34247;50.064;19.970;2023-02-24T00:29:53;98664.91;;;8.20;80.98
21086;BME280;34247;50.064;19.970;2023-02-24T00:31:18;98661.19;;;8.23;80.98
21086;BME280;34247;50.064;19.970;2023-02-24T00:32:23;98661.19;;;8.23;81.10
21086;BME280;34247;50.064;19.970;2023-02-24T00:33:27;98662.88;;;8.24;81.01
21086;BME280;34247;50.064;19.970;2023-02-24T00:34:35;98656.84;;;8.22;81.05
21086;BME280;34247;50.064;19.970;2023-02-24T00:35:40;98658.53;;;8.23;81.18
21086;BME280;34247;50.064;19.970;2023-02-24T00:36:44;98656.75;;;8.23;80.80
21086;BME280;34247;50.064;19.970;2023-02-24T00:37:48;98653.13;;;8.24;80.85
21086;BME280;34247;50.064;19.970;2023-02-24T00:39:03;98653.25;;;8.23;81.11
21086;BME280;34247;50.064;19.970;2023-02-24T00:40:16;98656.75;;;8.23;81.19
21086;BME280;34247;50.064;19.970;2023-02-24T00:41:31;98654.94;;;8.24;80.78
21086;BME280;34247;50.064;19.970;2023-02-24T00:42:36;98646.28;;;8.22;80.90
21086;BME280;34247;50.064;19.970;2023-02-24T00:43:44;98639.50;;;8.18;81.22
21086;BME280;34247;50.064;19.970;2023-02-24T00:44:52;98644.78;;;8.18;81.00
21086;BME280;34247;50.064;19.970;2023-02-24T00:45:59;98638.56;;;8.19;81.15
21086;BME280;34247;50.064;19.970;2023-02-24T00:47:09;98639.41;;;8.19;81.07
21086;BME280;34247;50.064;19.970;2023-02-24T00:48:13;98640.25;;;8.20;81.28
21086;BME280;34247;50.064;19.970;2023-02-24T00:49:19;98635.94;;;8.19;81.13
21086;BME280;34247;50.064;19.970;2023-02-24T00:50:24;98635.03;;;8.18;81.36
21086;BME280;34247;50.064;19.970;2023-02-24T00:51:28;98638.66;;;8.17;81.27
21086;BME280;34247;50.064;19.970;2023-02-24T00:52:32;98629.88;;;8.17;81.17
21086;BME280;34247;50.064;19.970;2023-02-24T00:53:38;98623.75;;;8.16;81.45
21086;BME280;34247;50.064;19.970;2023-02-24T00:54:46;98631.56;;;8.18;81.44
21086;BME280;34247;50.064;19.970;2023-02-24T00:56:00;98629.75;;;8.18;81.30
21086;BME280;34247;50.064;19.970;2023-02-24T00:57:05;98635.03;;;8.18;81.42
21086;BME280;34247;50.064;19.970;2023-02-24T00:58:11;98626.38;;;8.16;81.32
21086;BME280;34247;50.064;19.970;2023-02-24T00:59:17;98622.78;;;8.17;81.53
21086;BME280;34247;50.064;19.970;2023-02-24T01:00:21;98623.63;;;8.18;81.73
21086;BME280;34247;50.064;19.970;2023-02-24T01:01:31;98618.34;;;8.18;81.49
21086;BME280;34247;50.064;19.970;2023-02-24T01:02:35;98623.63;;;8.18;81.60
21086;BME280;34247;50.064;19.970;2023-02-24T01:03:41;98622.72;;;8.19;81.54
21086;BME280;34247;50.064;19.970;2023-02-24T01:04:45;98616.53;;;8.18;81.35
21086;BME280;34247;50.064;19.970;2023-02-24T01:05:49;98616.47;;;8.20;81.82
21086;BME280;34247;50.064;19.970;2023-02-24T01:06:54;98612.13;;;8.19;81.55
21086;BME280;34247;50.064;19.970;2023-02-24T01:08:03;98609.25;;;8.22;81.87
21086;BME280;34247;50.064;19.970;2023-02-24T01:09:13;98609.16;;;8.23;81.71
21086;BME280;34247;50.064;19.970;2023-02-24T01:10:22;98610.00;;;8.24;81.48
21086;BME280;34247;50.064;19.970;2023-02-24T01:11:34;98615.16;;;8.25;81.66
21086;BME280;34247;50.064;19.970;2023-02-24T01:12:57;98604.59;;;8.25;81.87
21086;BME280;34247;50.064;19.970;2023-02-24T01:14:11;98607.16;;;8.27;81.67
21086;BME280;34247;50.064;19.970;2023-02-24T01:15:19;98610.66;;;8.27;81.80
21086;BME280;34247;50.064;19.970;2023-02-24T01:16:24;98608.97;;;8.26;81.53
21086;BME280;34247;50.064;19.970;2023-02-24T01:17:28;98611.69;;;8.25;81.72
21086;BME280;34247;50.064;19.970;2023-02-24T01:18:33;98606.31;;;8.26;81.40
21086;BME280;34247;50.064;19.970;2023-02-24T01:19:37;98601.88;;;8.27;81.55
21086;BME280;34247;50.064;19.970;2023-02-24T01:20:41;98605.47;;;8.26;81.79
21086;BME280;34247;50.064;19.970;2023-02-24T01:21:45;98603.66;;;8.26;81.75
21086;BME280;34247;50.064;19.970;2023-02-24T01:22:50;98601.03;;;8.26;81.70
21086;BME280;34247;50.064;19.970;2023-02-24T01:23:59;98608.13;;;8.26;81.95
21086;BME280;34247;50.064;19.970;2023-02-24T01:25:05;98608.13;;;8.26;81.79
21086;BME280;34247;50.064;19.970;2023-02-24T01:26:10;98601.88;;;8.27;81.77
21086;BME280;34247;50.064;19.970;2023-02-24T01:27:17;98593.41;;;8.22;81.83
21086;BME280;34247;50.064;19.970;2023-02-24T01:28:22;98595.81;;;8.25;81.91
21086;BME280;34247;50.064;19.970;2023-02-24T01:29:26;98599.31;;;8.25;81.90
21086;BME280;34247;50.064;19.970;2023-02-24T01:30:30;98592.34;;;8.24;81.88
21086;BME280;34247;50.064;19.970;2023-02-24T01:31:34;98588.72;;;8.25;81.93
21086;BME280;34247;50.064;19.970;2023-02-24T01:32:39;98587.03;;;8.24;81.89
21086;BME280;34247;50.064;19.970;2023-02-24T01:33:43;98589.59;;;8.26;81.90
21086;BME280;34247;50.064;19.970;2023-02-24T01:34:52;98588.72;;;8.25;81.96
21086;BME280;34247;50.064;19.970;2023-02-24T01:35:56;98588.66;;;8.27;81.92
21086;BME280;34247;50.064;19.970;2023-02-24T01:37:01;98585.88;;;8.28;82.07
21086;BME280;34247;50.064;19.970;2023-02-24T01:38:05;98588.53;;;8.28;81.68
21086;BME280;34247;50.064;19.970;2023-02-24T01:39:12;98590.22;;;8.29;81.89
21086;BME280;34247;50.064;19.970;2023-02-24T01:40:17;98582.53;;;8.26;81.76
21086;BME280;34247;50.064;19.970;2023-02-24T01:41:25;98583.25;;;8.28;81.80
21086;BME280;34247;50.064;19.970;2023-02-24T01:42:34;98587.81;;;8.26;82.14
21086;BME280;34247;50.064;19.970;2023-02-24T01:45:00;98580.06;;;8.23;82.20
21086;BME280;34247;50.064;19.970;2023-02-24T01:45:33;98581.13;;;8.21;82.49
21086;BME280;34247;50.064;19.970;2023-02-24T01:46:42;98576.69;;;8.21;82.21
21086;BME280;34247;50.064;19.970;2023-02-24T01:47:49;98580.19;;;8.22;82.22
21086;BME280;34247;50.064;19.970;2023-02-24T01:48:59;98574.06;;;8.21;82.27
21086;BME280;34247;50.064;19.970;2023-02-24T01:50:10;98577.53;;;8.22;82.23
21086;BME280;34247;50.064;19.970;2023-02-24T01:51:18;98580.91;;;8.24;82.13
21086;BME280;34247;50.064;19.970;2023-02-24T01:52:30;98569.50;;;8.23;82.53
21086;BME280;34247;50.064;19.970;2023-02-24T01:53:37;98574.78;;;8.23;82.03
21086;BME280;34247;50.064;19.970;2023-02-24T01:55:57;98569.50;;;8.23;82.25
21086;BME280;34247;50.064;19.970;2023-02-24T01:57:02;98565.28;;;8.21;82.35
21086;BME280;34247;50.064;19.970;2023-02-24T01:58:25;98569.38;;;8.25;82.20
21086;BME280;34247;50.064;19.970;2023-02-24T01:59:33;98566.84;;;8.23;82.30
21086;BME280;34247;50.064;19.970;2023-02-24T02:00:40;98573.94;;;8.23;82.37
21086;BME280;34247;50.064;19.970;2023-02-24T02:01:55;98566.00;;;8.23;82.21
21086;BME280;34247;50.064;19.970;2023-02-24T02:03:29;98566.13;;;8.21;82.73
21086;BME280;34247;50.064;19.970;2023-02-24T02:04:54;98563.47;;;8.21;82.33
21086;BME280;34247;50.064;19.970;2023-02-24T02:06:07;98563.78;;;8.17;82.77
21086;BME280;34247;50.064;19.970;2023-02-24T02:07:17;98558.38;;;8.18;82.59
21086;BME280;34247;50.064;19.970;2023-02-24T02:08:22;98558.31;;;8.20;82.64
21086;BME280;34247;50.064;19.970;2023-02-24T02:09:28;98557.47;;;8.19;82.79
21086;BME280;34247;50.064;19.970;2023-02-24T02:10:32;98549.63;;;8.18;82.83
21086;BME280;34247;50.064;19.970;2023-02-24T02:11:37;98557.22;;;8.22;82.79
21086;BME280;34247;50.064;19.970;2023-02-24T02:12:42;98553.63;;;8.23;82.36
21086;BME280;34247;50.064;19.970;2023-02-24T02:13:50;98550.03;;;8.24;82.58
21086;BME280;34247;50.064;19.970;2023-02-24T02:14:56;98558.81;;;8.25;82.62
21086;BME280;34247;50.064;19.970;2023-02-24T02:17:54;98549.84;;;8.27;82.32
21086;BME280;34247;50.064;19.970;2023-02-24T02:23:53;98552.13;;;8.32;82.40
21086;BME280;34247;50.064;19.970;2023-02-24T02:32:50;98544.56;;;8.40;82.27
21086;BME280;34247;50.064;19.970;2023-02-24T02:36:38;98532.91;;;8.43;82.25
21086;BME280;34247;50.064;19.970;2023-02-24T02:38:04;98536.28;;;8.45;82.37
21086;BME280;34247;50.064;19.970;2023-02-24T02:39:51;98536.09;;;8.48;82.32
21086;BME280;34247;50.064;19.970;2023-02-24T02:41:23;98530.69;;;8.49;81.95
21086;BME280;34247;50.064;19.970;2023-02-24T02:43:17;98527.91;;;8.51;82.10
21086;BME280;34247;50.064;19.970;2023-02-24T02:44:38;98529.72;;;8.50;81.96
21086;BME280;34247;50.064;19.970;2023-02-24T02:46:02;98528.63;;;8.53;82.16
21086;BME280;34247;50.064;19.970;2023-02-24T02:47:28;98526.97;;;8.52;82.26
21086;BME280;34247;50.064;19.970;2023-02-24T02:48:54;98524.44;;;8.50;82.37
21086;BME280;34247;50.064;19.970;2023-02-24T02:51:38;98519.97;;;8.51;82.37
21086;BME280;34247;50.064;19.970;2023-02-24T02:53:02;98526.13;;;8.51;82.34
21086;BME280;34247;50.064;19.970;2023-02-24T02:55:50;98519.84;;;8.52;82.00
21086;BME280;34247;50.064;19.970;2023-02-24T02:57:17;98517.34;;;8.51;82.35
21086;BME280;34247;50.064;19.970;2023-02-24T02:58:30;98512.28;;;8.48;82.20
21086;BME280;34247;50.064;19.970;2023-02-24T02:59:53;98514.69;;;8.51;82.56
21086;BME280;34247;50.064;19.970;2023-02-24T03:01:02;98510.25;;;8.51;82.35
21086;BME280;34247;50.064;19.970;2023-02-24T03:02:10;98511.09;;;8.52;82.41
21086;BME280;34247;50.064;19.970;2023-02-24T03:03:18;98516.25;;;8.53;82.34
21086;BME280;34247;50.064;19.970;2023-02-24T03:04:23;98509.91;;;8.56;82.12
21086;BME280;34247;50.064;19.970;2023-02-24T03:05:38;98510.75;;;8.56;82.45
21086;BME280;34247;50.064;19.970;2023-02-24T03:06:58;98509.06;;;8.55;81.97
21086;BME280;34247;50.064;19.970;2023-02-24T03:08:06;98504.50;;;8.57;82.11
21086;BME280;34247;50.064;19.970;2023-02-24T03:09:29;98504.50;;;8.57;82.07
21086;BME280;34247;50.064;19.970;2023-02-24T03:10:35;98513.41;;;8.56;82.10
21086;BME280;34247;50.064;19.970;2023-02-24T03:11:55;98509.56;;;8.61;82.16
21086;BME280;34247;50.064;19.970;2023-02-24T03:13:08;98508.72;;;8.60;82.01
21086;BME280;34247;50.064;19.970;2023-02-24T03:14:18;98513.19;;;8.60;82.13
21086;BME280;34247;50.064;19.970;2023-02-24T03:15:27;98507.03;;;8.59;81.92
21086;BME280;34247;50.064;19.970;2023-02-24T03:16:34;98502.47;;;8.61;81.96
21086;BME280;34247;50.064;19.970;2023-02-24T03:17:42;98508.59;;;8.62;82.15
21086;BME280;34247;50.064;19.970;2023-02-24T03:19:02;98507.69;;;8.63;81.80
21086;BME280;34247;50.064;19.970;2023-02-24T03:20:20;98505.03;;;8.63;82.05
21086;BME280;34247;50.064;19.970;2023-02-24T03:21:40;98504.19;;;8.62;81.80
21086;BME280;34247;50.064;19.970;2023-02-24T03:23:01;98511.25;;;8.62;82.15
21086;BME280;34247;50.064;19.970;2023-02-24T03:24:07;98502.38;;;8.63;81.83
21086;BME280;34247;50.064;19.970;2023-02-24T03:25:12;98507.69;;;8.63;81.66
21086;BME280;34247;50.064;19.970;2023-02-24T03:26:42;98502.38;;;8.63;82.14
21086;BME280;34247;50.064;19.970;2023-02-24T03:27:54;98503.44;;;8.60;82.08
21086;BME280;34247;50.064;19.970;2023-02-24T03:29:19;98503.44;;;8.60;82.14
21086;BME280;34247;50.064;19.970;2023-02-24T03:30:42;98499.34;;;8.56;82.08
21086;BME280;34247;50.064;19.970;2023-02-24T03:33:33;98498.50;;;8.55;82.17
21086;BME280;34247;50.064;19.970;2023-02-24T03:35:25;98490.44;;;8.57;82.30
21086;BME280;34247;50.064;19.970;2023-02-24T03:36:29;98490.66;;;8.54;82.18
21086;BME280;34247;50.064;19.970;2023-02-24T03:37:35;98492.25;;;8.56;82.00
21086;BME280;34247;50.064;19.970;2023-02-24T03:38:41;98493.94;;;8.57;81.96
21086;BME280;34247;50.064;19.970;2023-02-24T03:39:46;98492.97;;;8.59;82.29
21086;BME280;34247;50.064;19.970;2023-02-24T03:40:56;98482.28;;;8.60;81.83
21086;BME280;34247;50.064;19.970;2023-02-24T03:42:21;98481.31;;;8.61;81.64
21086;BME280;34247;50.064;19.970;2023-02-24T03:43:32;98486.50;;;8.63;81.90
21086;BME280;34247;50.064;19.970;2023-02-24T03:44:39;98489.16;;;8.63;81.86
21086;BME280;34247;50.064;19.970;2023-02-24T03:45:45;98481.09;;;8.64;81.54
21086;BME280;34247;50.064;19.970;2023-02-24T03:46:51;98482.06;;;8.63;81.55
21086;BME280;34247;50.064;19.970;2023-02-24T03:48:00;98481.94;;;8.65;81.64
21086;BME280;34247;50.064;19.970;2023-02-24T03:49:13;98482.78;;;8.65;81.49
21086;BME280;34247;50.064;19.970;2023-02-24T03:50:20;98477.50;;;8.65;81.76
21086;BME280;34247;50.064;19.970;2023-02-24T03:51:25;98474.22;;;8.62;81.84
21086;BME280;34247;50.064;19.970;2023-02-24T03:58:01;98470.00;;;8.59;82.65
21086;BME280;34247;50.064;19.970;2023-02-24T04:02:22;98461.22;;;8.59;84.64
21086;BME280;34247;50.064;19.970;2023-02-24T04:03:52;98459.22;;;8.62;85.71
21086;BME280;34247;50.064;19.970;2023-02-24T04:05:20;98459.22;;;8.62;88.38
21086;BME280;34247;50.064;19.970;2023-02-24T04:06:50;98456.00;;;8.70;88.97
21086;BME280;34247;50.064;19.970;2023-02-24T04:08:06;98458.75;;;8.68;89.87
21086;BME280;34247;50.064;19.970;2023-02-24T04:09:22;98456.00;;;8.70;92.21
21086;BME280;34247;50.064;19.970;2023-02-24T04:10:44;98448.78;;;8.72;93.84
21086;BME280;34247;50.064;19.970;2023-02-24T04:13:44;98444.28;;;8.85;94.88
21086;BME280;34247;50.064;19.970;2023-02-24T04:16:30;98441.28;;;8.90;95.71
21086;BME280;34247;50.064;19.970;2023-02-24T04:17:43;98438.53;;;8.91;96.00
21086;BME280;34247;50.064;19.970;2023-02-24T04:18:50;98446.84;;;8.98;95.55
21086;BME280;34247;50.064;19.970;2023-02-24T04:20:00;98441.34;;;9.01;95.34
21086;BME280;34247;50.064;19.970;2023-02-24T04:21:16;98442.78;;;9.05;95.65
21086;BME280;34247;50.064;19.970;2023-02-24T04:22:25;98443.84;;;9.02;96.36
21086;BME280;34247;50.064;19.970;2023-02-24T04:23:37;98432.31;;;9.03;96.44
21086;BME280;34247;50.064;19.970;2023-02-24T04:24:46;98434.94;;;9.03;96.86
21086;BME280;34247;50.064;19.970;2023-02-24T04:25:54;98434.50;;;9.09;95.96
21086;BME280;34247;50.064;19.970;2023-02-24T04:27:03;98434.28;;;9.13;95.86
21086;BME280;34247;50.064;19.970;2023-02-24T04:28:12;98431.38;;;9.16;95.70
21086;BME280;34247;50.064;19.970;2023-02-24T04:29:22;98431.16;;;9.19;95.35
21086;BME280;34247;50.064;19.970;2023-02-24T04:30:33;98430.31;;;9.18;95.89
21086;BME280;34247;50.064;19.970;2023-02-24T04:31:38;98433.56;;;9.22;95.34
21086;BME280;34247;50.064;19.970;2023-02-24T04:32:43;98433.22;;;9.26;95.44
21086;BME280;34247;50.064;19.970;2023-02-24T04:33:47;98433.13;;;9.28;94.80
21086;BME280;34247;50.064;19.970;2023-02-24T04:35:09;98427.56;;;9.31;94.99
21086;BME280;34247;50.064;19.970;2023-02-24T04:36:17;98428.28;;;9.33;95.11
21086;BME280;34247;50.064;19.970;2023-02-24T04:37:21;98431.69;;;9.35;94.58
21086;BME280;34247;50.064;19.970;2023-02-24T04:38:26;98427.31;;;9.34;94.78
21086;BME280;34247;50.064;19.970;2023-02-24T04:39:30;98426.38;;;9.35;95.09
21086;BME280;34247;50.064;19.970;2023-02-24T04:40:34;98426.38;;;9.35;95.20
21086;BME280;34247;50.064;19.970;2023-02-24T04:41:39;98422.66;;;9.37;95.04
21086;BME280;34247;50.064;19.970;2023-02-24T04:42:44;98429.50;;;9.40;94.68
21086;BME280;34247;50.064;19.970;2023-02-24T04:43:51;98421.47;;;9.42;94.71
21086;BME280;34247;50.064;19.970;2023-02-24T04:44:55;98417.00;;;9.42;94.54
21086;BME280;34247;50.064;19.970;2023-02-24T04:46:01;98416.25;;;9.40;94.61
21086;BME280;34247;50.064;19.970;2023-02-24T04:47:11;98415.19;;;9.43;94.43
21086;BME280;34247;50.064;19.970;2023-02-24T04:48:15;98412.56;;;9.43;94.84
21086;BME280;34247;50.064;19.970;2023-02-24T04:49:19;98414.22;;;9.44;94.97
21086;BME280;34247;50.064;19.970;2023-02-24T04:50:25;98415.06;;;9.44;94.89
21086;BME280;34247;50.064;19.970;2023-02-24T04:51:31;98416.75;;;9.45;94.86
21086;BME280;34247;50.064;19.970;2023-02-24T04:52:36;98407.84;;;9.46;94.66
21086;BME280;34247;50.064;19.970;2023-02-24T04:53:41;98403.50;;;9.45;94.58
21086;BME280;34247;50.064;19.970;2023-02-24T04:54:46;98403.38;;;9.47;94.52
21086;BME280;34247;50.064;19.970;2023-02-24T04:55:51;98404.22;;;9.47;94.85
21086;BME280;34247;50.064;19.970;2023-02-24T04:56:56;98404.22;;;9.47;94.96
21086;BME280;34247;50.064;19.970;2023-02-24T04:58:02;98403.25;;;9.48;94.95
21086;BME280;34247;50.064;19.970;2023-02-24T04:59:06;98398.81;;;9.49;94.82
21086;BME280;34247;50.064;19.970;2023-02-24T05:00:14;98396.16;;;9.49;94.63
21086;BME280;34247;50.064;19.970;2023-02-24T05:01:25;98398.72;;;9.50;94.74
21086;BME280;34247;50.064;19.970;2023-02-24T05:02:29;98397.13;;;9.48;95.15
21086;BME280;34247;50.064;19.970;2023-02-24T05:03:34;98397.97;;;9.48;95.04
21086;BME280;34247;50.064;19.970;2023-02-24T05:04:39;98399.69;;;9.49;95.22
21086;BME280;34247;50.064;19.970;2023-02-24T05:05:52;98392.66;;;9.48;95.32
21086;BME280;34247;50.064;19.970;2023-02-24T05:06:59;98392.66;;;9.48;95.33
21086;BME280;34247;50.064;19.970;2023-02-24T05:08:09;98395.31;;;9.48;95.31
21086;BME280;34247;50.064;19.970;2023-02-24T05:09:16;98393.41;;;9.50;95.19
21086;BME280;34247;50.064;19.970;2023-02-24T05:10:22;98392.44;;;9.51;95.26
21086;BME280;34247;50.064;19.970;2023-02-24T05:11:30;98396.91;;;9.51;95.53
21086;BME280;34247;50.064;19.970;2023-02-24T05:12:37;98392.56;;;9.50;95.17
21086;BME280;34247;50.064;19.970;2023-02-24T05:13:43;98394.38;;;9.49;95.62
21086;BME280;34247;50.064;19.970;2023-02-24T05:14:50;98395.31;;;9.48;95.33
21086;BME280;34247;50.064;19.970;2023-02-24T05:16:04;98396.16;;;9.49;95.20
21086;BME280;34247;50.064;19.970;2023-02-24T05:17:11;98392.66;;;9.48;95.71
21086;BME280;34247;50.064;19.970;2023-02-24T05:18:17;98387.38;;;9.48;95.76
21086;BME280;34247;50.064;19.970;2023-02-24T05:19:21;98384.72;;;9.48;95.70
21086;BME280;34247;50.064;19.970;2023-02-24T05:20:47;98384.72;;;9.48;95.70
21086;BME280;34247;50.064;19.970;2023-02-24T05:22:10;98384.72;;;9.48;96.01
21086;BME280;34247;50.064;19.970;2023-02-24T05:23:17;98383.88;;;9.48;95.72
21086;BME280;34247;50.064;19.970;2023-02-24T05:24:21;98383.88;;;9.48;95.70
21086;BME280;34247;50.064;19.970;2023-02-24T05:25:25;98385.56;;;9.49;96.04
21086;BME280;34247;50.064;19.970;2023-02-24T05:26:29;98382.91;;;9.49;95.74
21086;BME280;34247;50.064;19.970;2023-02-24T05:27:35;98383.88;;;9.48;95.76
21086;BME280;34247;50.064;19.970;2023-02-24T05:28:46;98382.19;;;9.47;95.86
21086;BME280;34247;50.064;19.970;2023-02-24T05:29:55;98377.16;;;9.44;96.11
21086;BME280;34247;50.064;19.970;2023-02-24T05:31:32;98381.59;;;9.43;96.49
21086;BME280;34247;50.064;19.970;2023-02-24T05:32:37;98378.00;;;9.44;96.50
21086;BME280;34247;50.064;19.970;2023-02-24T05:33:44;98383.28;;;9.44;96.34
21086;BME280;34247;50.064;19.970;2023-02-24T05:34:49;98378.13;;;9.43;96.40
21086;BME280;34247;50.064;19.970;2023-02-24T05:35:54;98381.59;;;9.43;96.83
21086;BME280;34247;50.064;19.970;2023-02-24T05:37:01;98379.31;;;9.38;97.29
21086;BME280;34247;50.064;19.970;2023-02-24T05:38:14;98375.09;;;9.36;97.94
21086;BME280;34247;50.064;19.970;2023-02-24T05:39:23;98373.16;;;9.38;97.96
21086;BME280;34247;50.064;19.970;2023-02-24T05:40:29;98374.13;;;9.37;97.42
21086;BME280;34247;50.064;19.970;2023-02-24T05:41:38;98370.78;;;9.35;97.70
21086;BME280;34247;50.064;19.970;2023-02-24T05:42:45;98366.53;;;9.32;98.41
21086;BME280;34247;50.064;19.970;2023-02-24T05:43:54;98365.69;;;9.32;98.51
21086;BME280;34247;50.064;19.970;2023-02-24T05:45:00;98368.47;;;9.30;98.42
21086;BME280;34247;50.064;19.970;2023-02-24T05:46:04;98371.00;;;9.32;98.20
21086;BME280;34247;50.064;19.970;2023-02-24T05:47:10;98378.81;;;9.33;98.73
21086;BME280;34247;50.064;19.970;2023-02-24T05:48:15;98371.00;;;9.32;98.54
21086;BME280;34247;50.064;19.970;2023-02-24T05:49:22;98367.63;;;9.30;99.01
21086;BME280;34247;50.064;19.970;2023-02-24T05:50:29;98362.69;;;9.25;99.44
21086;BME280;34247;50.064;19.970;2023-02-24T05:51:37;98362.94;;;9.22;99.89
21086;BME280;34247;50.064;19.970;2023-02-24T05:52:42;98361.13;;;9.23;99.58
21086;BME280;34247;50.064;19.970;2023-02-24T05:53:53;98358.47;;;9.23;99.60
21086;BME280;34247;50.064;19.970;2023-02-24T05:54:58;98363.66;;;9.24;99.38
21086;BME280;34247;50.064;19.970;2023-02-24T05:56:06;98357.38;;;9.25;99.35
21086;BME280;34247;50.064;19.970;2023-02-24T05:57:16;98357.50;;;9.24;100.00
21086;BME280;34247;50.064;19.970;2023-02-24T05:58:24;98361.13;;;9.23;100.00
21086;BME280;34247;50.064;19.970;2023-02-24T05:59:33;98369.91;;;9.23;99.94
21086;BME280;34247;50.064;19.970;2023-02-24T06:00:38;98370.75;;;9.24;99.98
21086;BME280;34247;50.064;19.970;2023-02-24T06:01:43;98362.94;;;9.22;100.00
21086;BME280;34247;50.064;19.970;2023-02-24T06:02:51;98353.91;;;9.14;100.00
21086;BME280;34247;50.064;19.970;2023-02-24T06:04:05;98356.28;;;9.17;100.00
21086;BME280;34247;50.064;19.970;2023-02-24T06:05:10;98358.69;;;9.20;100.00
21086;BME280;34247;50.064;19.970;2023-02-24T06:06:29;98353.31;;;9.21;100.00
21086;BME280;34247;50.064;19.970;2023-02-24T06:07:34;98359.44;;;9.22;100.00
21086;BME280;34247;50.064;19.970;2023-02-24T06:08:39;98355.81;;;9.23;100.00
21086;BME280;34247;50.064;19.970;2023-02-24T06:09:57;98354.00;;;9.23;100.00
21086;BME280;34247;50.064;19.970;2023-02-24T06:11:02;98353.88;;;9.25;100.00
21086;BME280;34247;50.064;19.970;2023-02-24T06:12:11;98351.97;;;9.27;100.00
21086;BME280;34247;50.064;19.970;2023-02-24T06:13:20;98349.31;;;9.27;99.99
21086;BME280;34247;50.064;19.970;2023-02-24T06:14:26;98339.69;;;9.26;100.00
21086;BME280;34247;50.064;19.970;2023-02-24T06:15:33;98346.66;;;9.27;100.00
21086;BME280;34247;50.064;19.970;2023-02-24T06:16:41;98335.34;;;9.25;100.00
21086;BME280;34247;50.064;19.970;2023-02-24T06:18:15;98344.75;;;9.29;100.00
21086;BME280;34247;50.064;19.970;2023-02-24T06:19:23;98344.88;;;9.27;100.00
21086;BME280;34247;50.064;19.970;2023-02-24T06:20:34;98335.97;;;9.28;100.00
21086;BME280;34247;50.064;19.970;2023-02-24T06:21:41;98336.69;;;9.30;100.00
21086;BME280;34247;50.064;19.970;2023-02-24T06:22:49;98336.81;;;9.29;100.00
21086;BME280;34247;50.064;19.970;2023-02-24T06:24:00;98332.94;;;9.33;100.00
21086;BME280;34247;50.064;19.970;2023-02-24T06:25:07;98328.50;;;9.33;100.00
21086;BME280;34247;50.064;19.970;2023-02-24T06:26:15;98334.88;;;9.31;100.00
21086;BME280;34247;50.064;19.970;2023-02-24T06:27:23;98336.34;;;9.35;99.95
21086;BME280;34247;50.064;19.970;2023-02-24T06:28:30;98331.88;;;9.35;100.00
21086;BME280;34247;50.064;19.970;2023-02-24T06:29:37;98325.75;;;9.35;100.00
21086;BME280;34247;50.064;19.970;2023-02-24T06:30:42;98337.19;;;9.35;100.00
21086;BME280;34247;50.064;19.970;2023-02-24T06:31:47;98338.88;;;9.36;100.00
21086;BME280;34247;50.064;19.970;2023-02-24T06:32:53;98323.09;;;9.35;100.00
21086;BME280;34247;50.064;19.970;2023-02-24T06:34:02;98339.00;;;9.35;100.00
21086;BME280;34247;50.064;19.970;2023-02-24T06:35:07;98334.53;;;9.35;100.00
21086;BME280;34247;50.064;19.970;2023-02-24T06:36:13;98326.47;;;9.37;100.00
21086;BME280;34247;50.064;19.970;2023-02-24T06:37:19;98336.09;;;9.38;100.00
21086;BME280;34247;50.064;19.970;2023-02-24T06:38:23;98325.50;;;9.38;100.00
21086;BME280;34247;50.064;19.970;2023-02-24T06:39:30;98325.25;;;9.41;100.00
21086;BME280;34247;50.064;19.970;2023-02-24T06:40:39;98310.31;;;9.40;100.00
21086;BME280;34247;50.064;19.970;2023-02-24T06:41:49;98330.31;;;9.44;100.00
21086;BME280;34247;50.064;19.970;2023-02-24T06:42:55;98321.66;;;9.42;100.00
21086;BME280;34247;50.064;19.970;2023-02-24T06:43:59;98322.50;;;9.43;100.00
21086;BME280;34247;50.064;19.970;2023-02-24T06:45:06;98313.81;;;9.40;100.00